createdAt,value
2024-05-09T00:02:34.373Z,20.40
2024-05-09T00:05:30.587Z,20.40
2024-05-09T00:08:26.780Z,20.50
2024-05-09T00:11:23.215Z,20.50
2024-05-09T00:14:19.358Z,20.50
2024-05-09T00:17:15.677Z,20.70
2024-05-09T00:20:17.882Z,20.80
2024-05-09T00:23:20.362Z,20.90
2024-05-09T00:26:22.242Z,21.00
2024-05-09T00:29:18.451Z,21.10
2024-05-09T00:32:14.656Z,21.20
2024-05-09T00:35:11.059Z,21.20
2024-05-09T00:38:07.625Z,21.20
2024-05-09T00:41:03.951Z,21.20
2024-05-09T00:44:00.128Z,21.40
2024-05-09T00:46:58.138Z,21.40
2024-05-09T00:49:54.314Z,21.40
2024-05-09T00:52:51.891Z,21.50
2024-05-09T00:55:49.460Z,21.60
2024-05-09T00:58:46.552Z,21.70
2024-05-09T01:01:45.951Z,21.70
2024-05-09T01:04:42.685Z,21.90
2024-05-09T01:07:38.797Z,22.00
2024-05-09T01:10:36.110Z,22.00
2024-05-09T01:13:32.683Z,22.10
2024-05-09T01:16:29.015Z,22.20
2024-05-09T01:19:32.786Z,22.20
2024-05-09T01:22:31.088Z,22.20
2024-05-09T01:25:27.173Z,22.30
2024-05-09T01:28:23.222Z,22.30
2024-05-09T01:31:19.329Z,22.40
2024-05-09T01:34:15.523Z,22.50
2024-05-09T01:37:11.737Z,22.60
2024-05-09T01:40:12.062Z,22.60
2024-05-09T01:43:13.940Z,22.70
2024-05-09T01:46:15.759Z,22.70
2024-05-09T01:49:12.033Z,22.80
2024-05-09T01:52:08.617Z,22.90
2024-05-09T01:55:06.506Z,22.90
2024-05-09T01:58:03.101Z,22.90
2024-05-09T02:00:59.248Z,23.00
2024-05-09T02:03:55.625Z,23.10
2024-05-09T02:06:52.086Z,23.20
2024-05-09T02:09:48.248Z,23.20
2024-05-09T02:12:44.305Z,23.30
2024-05-09T02:15:40.423Z,23.40
2024-05-09T02:18:36.493Z,23.50
2024-05-09T02:21:36.408Z,23.40
2024-05-09T02:24:32.441Z,23.50
2024-05-09T02:27:28.625Z,23.40
2024-05-09T02:30:31.150Z,23.40
2024-05-09T02:33:35.243Z,23.40
2024-05-09T02:36:31.310Z,23.40
2024-05-09T02:39:27.371Z,23.50
2024-05-09T02:42:23.378Z,23.60
2024-05-09T02:45:19.416Z,23.60
2024-05-09T02:48:16.082Z,23.60
2024-05-09T02:51:12.316Z,23.70
2024-05-09T02:54:09.626Z,23.70
2024-05-09T02:57:04.881Z,23.70
2024-05-09T03:00:00.916Z,23.60
2024-05-09T03:02:57.796Z,23.50
2024-05-09T03:05:53.894Z,23.50
2024-05-09T03:08:51.039Z,23.50
2024-05-09T03:11:47.871Z,23.60
2024-05-09T03:14:43.977Z,23.60
2024-05-09T03:17:42.624Z,23.70
2024-05-09T03:20:40.194Z,23.70
2024-05-09T03:23:38.101Z,23.60
2024-05-09T03:26:34.238Z,23.70
2024-05-09T03:29:30.494Z,23.70
2024-05-09T03:32:26.930Z,23.70
2024-05-09T03:35:23.249Z,23.80
2024-05-09T03:38:19.406Z,23.70
2024-05-09T03:41:16.433Z,23.80
2024-05-09T03:44:12.646Z,23.90
2024-05-09T03:47:08.780Z,24.10
2024-05-09T03:50:05.826Z,24.20
2024-05-09T03:53:04.300Z,24.10
2024-05-09T03:56:00.568Z,24.20
2024-05-09T03:58:56.672Z,24.20
2024-05-09T04:01:52.847Z,24.30
2024-05-09T04:04:49.092Z,24.40
2024-05-09T04:07:48.663Z,24.30
2024-05-09T04:10:45.426Z,24.30
2024-05-09T04:13:41.640Z,24.30
2024-05-09T04:16:37.697Z,24.30
2024-05-09T04:19:33.959Z,24.30
2024-05-09T04:22:30.063Z,24.40
2024-05-09T04:25:26.097Z,24.40
2024-05-09T04:28:22.795Z,24.50
2024-05-09T04:31:18.826Z,24.50
2024-05-09T04:34:15.036Z,24.50
2024-05-09T04:37:11.195Z,24.50
2024-05-09T04:40:11.234Z,24.50
2024-05-09T04:43:17.246Z,24.60
2024-05-09T04:46:13.455Z,24.70
2024-05-09T04:49:09.677Z,24.80
2024-05-09T04:52:05.760Z,24.80
2024-05-09T04:55:01.875Z,24.80
2024-05-09T04:57:57.911Z,24.80
2024-05-09T05:00:54.113Z,24.80
2024-05-09T05:03:50.343Z,24.80
2024-05-09T05:06:46.462Z,24.80
2024-05-09T05:09:42.464Z,24.80
2024-05-09T05:12:57.110Z,24.80
2024-05-09T05:15:59.616Z,24.80
2024-05-09T05:18:55.728Z,24.60
2024-05-09T05:21:51.777Z,24.50
2024-05-09T05:24:47.897Z,24.40
2024-05-09T05:27:43.914Z,24.50
2024-05-09T05:30:41.171Z,24.50
2024-05-09T05:33:37.303Z,24.60
2024-05-09T05:36:33.490Z,24.60
2024-05-09T05:39:29.396Z,24.70
2024-05-09T05:42:25.326Z,24.60
2024-05-09T05:45:21.362Z,24.50
2024-05-09T05:48:19.267Z,24.40
2024-05-09T05:51:15.475Z,24.40
2024-05-09T05:54:11.496Z,24.40
2024-05-09T05:57:07.701Z,24.30
2024-05-09T06:00:05.530Z,24.20
2024-05-09T06:03:05.282Z,24.20
2024-05-09T06:06:07.121Z,24.20
2024-05-09T06:09:03.122Z,24.10
2024-05-09T06:11:59.055Z,24.10
2024-05-09T06:14:55.383Z,24.00
2024-05-09T06:17:51.505Z,23.90
2024-05-09T06:20:47.706Z,23.80
2024-05-09T06:23:51.248Z,23.70
2024-05-09T06:26:48.313Z,23.80
2024-05-09T06:29:44.256Z,23.70
2024-05-09T06:32:40.273Z,23.70
2024-05-09T06:35:36.785Z,23.60
2024-05-09T06:38:33.204Z,23.50
2024-05-09T06:41:29.378Z,23.50
2024-05-09T06:44:25.699Z,23.40
2024-05-09T06:47:21.784Z,23.30
2024-05-09T06:50:23.762Z,23.20
2024-05-09T06:53:26.838Z,23.20
2024-05-09T06:56:22.867Z,23.20
2024-05-09T06:59:18.978Z,23.00
2024-05-09T07:02:14.966Z,22.90
2024-05-09T07:05:11.152Z,22.90
2024-05-09T07:08:07.737Z,22.80
2024-05-09T07:11:03.977Z,22.80
2024-05-09T07:14:00.012Z,22.70
2024-05-09T07:16:56.402Z,22.60
2024-05-09T07:19:54.084Z,22.50
2024-05-09T07:22:50.482Z,22.40
2024-05-09T07:25:46.943Z,22.40
2024-05-09T07:28:43.176Z,22.30
2024-05-09T07:31:39.065Z,22.20
2024-05-09T07:34:35.437Z,22.00
2024-05-09T07:37:31.429Z,21.80
2024-05-09T07:40:34.883Z,21.70
2024-05-09T07:43:32.599Z,21.60
2024-05-09T07:47:36.486Z,21.50
2024-05-09T07:51:32.325Z,21.50
2024-05-09T07:53:35.951Z,21.30
2024-05-09T07:56:18.331Z,21.30
2024-05-09T07:59:15.145Z,21.20
2024-05-09T08:02:11.482Z,21.10
2024-05-09T08:05:08.046Z,21.00
2024-05-09T08:08:04.059Z,21.00
2024-05-09T08:10:59.952Z,21.00
2024-05-09T08:13:55.891Z,21.00
2024-05-09T08:16:51.843Z,21.00
2024-05-09T08:19:48.140Z,20.90
2024-05-09T08:22:44.170Z,20.80
2024-05-09T08:25:40.702Z,20.80
2024-05-09T08:28:36.673Z,20.70
2024-05-09T08:31:32.661Z,20.50
2024-05-09T08:34:29.073Z,20.40
2024-05-09T08:37:29.416Z,20.50
2024-05-09T08:40:34.406Z,20.40
2024-05-09T08:43:33.546Z,20.40
2024-05-09T08:46:32.051Z,20.20
2024-05-09T08:49:29.164Z,20.20
2024-05-09T08:52:25.124Z,20.20
2024-05-09T08:55:21.068Z,20.20
2024-05-09T08:58:21.205Z,20.10
2024-05-09T09:01:18.912Z,20.10
2024-05-09T09:04:16.747Z,20.10
2024-05-09T09:07:13.884Z,20.00
2024-05-09T09:10:13.000Z,20.00
2024-05-09T09:13:12.930Z,20.00
2024-05-09T09:16:09.469Z,20.10
2024-05-09T09:19:06.856Z,20.10
2024-05-09T09:22:03.238Z,20.10
2024-05-09T09:24:59.179Z,20.10
2024-05-09T09:27:55.304Z,20.10
2024-05-09T09:30:51.348Z,20.10
2024-05-09T09:33:47.609Z,20.10
2024-05-09T09:36:45.441Z,20.00
2024-05-09T09:39:43.936Z,20.00
2024-05-09T09:42:42.271Z,19.90
2024-05-09T09:45:40.409Z,19.90
2024-05-09T09:48:38.633Z,19.80
2024-05-09T09:51:35.847Z,19.70
2024-05-09T09:54:32.492Z,19.60
2024-05-09T09:57:30.614Z,19.60
2024-05-09T10:00:33.094Z,19.50
2024-05-09T10:03:30.791Z,19.40
2024-05-09T10:06:27.667Z,19.30
2024-05-09T10:09:24.660Z,19.30
2024-05-09T10:12:24.597Z,19.20
2024-05-09T10:15:23.258Z,19.10
2024-05-09T10:18:19.634Z,19.00
2024-05-09T10:21:33.664Z,19.00
2024-05-09T10:24:30.129Z,18.90
2024-05-09T10:27:32.460Z,18.80
2024-05-09T10:30:35.671Z,18.70
2024-05-09T10:34:04.446Z,18.70
2024-05-09T10:37:05.026Z,18.60
2024-05-09T10:40:01.910Z,18.60
2024-05-09T10:43:00.561Z,18.50
2024-05-09T10:45:58.072Z,18.40
2024-05-09T10:48:54.442Z,18.30
2024-05-09T10:51:50.915Z,18.30
2024-05-09T10:54:46.944Z,18.30
2024-05-09T10:57:43.762Z,18.20
2024-05-09T11:00:39.766Z,18.10
2024-05-09T11:03:36.552Z,18.10
2024-05-09T11:06:32.822Z,18.00
2024-05-09T11:09:29.150Z,18.00
2024-05-09T11:12:25.133Z,17.90
2024-05-09T11:15:21.361Z,17.80
2024-05-09T11:18:29.727Z,17.80
2024-05-09T11:21:28.701Z,17.70
2024-05-09T11:24:25.380Z,17.70
2024-05-09T11:27:24.544Z,17.70
2024-05-09T11:30:29.777Z,17.60
2024-05-09T11:33:27.955Z,17.60
2024-05-09T11:36:24.040Z,17.60
2024-05-09T11:39:19.971Z,17.50
2024-05-09T11:42:16.131Z,17.50
2024-05-09T11:45:12.116Z,17.40
2024-05-09T11:48:08.405Z,17.30
2024-05-09T11:51:04.466Z,17.30
2024-05-09T11:54:00.436Z,17.20
2024-05-09T11:56:56.825Z,17.20
2024-05-09T11:59:53.809Z,17.10
2024-05-09T12:02:49.889Z,17.10
2024-05-09T12:05:45.990Z,17.00
2024-05-09T12:08:42.459Z,17.00
2024-05-09T12:11:38.352Z,16.90
2024-05-09T12:14:34.306Z,16.90
2024-05-09T12:17:30.674Z,16.90
2024-05-09T12:20:35.129Z,16.80
2024-05-09T12:23:34.156Z,16.80
2024-05-09T12:26:30.401Z,16.80
2024-05-09T12:29:26.830Z,16.70
2024-05-09T12:32:22.878Z,16.70
2024-05-09T12:35:18.938Z,16.60
2024-05-09T12:38:15.380Z,16.60
2024-05-09T12:41:12.342Z,16.60
2024-05-09T12:44:08.619Z,16.50
2024-05-09T12:47:06.035Z,16.50
2024-05-09T12:50:03.778Z,16.40
2024-05-09T12:53:00.010Z,16.40
2024-05-09T12:56:00.124Z,16.40
2024-05-09T12:58:58.423Z,16.30
2024-05-09T13:01:55.896Z,16.30
2024-05-09T13:04:52.644Z,16.20
2024-05-09T13:07:48.889Z,16.20
2024-05-09T13:10:45.109Z,16.10
2024-05-09T13:13:41.052Z,16.00
2024-05-09T13:16:37.123Z,15.90
2024-05-09T13:19:33.161Z,16.00
2024-05-09T13:22:29.070Z,16.00
2024-05-09T13:25:25.817Z,16.00
2024-05-09T13:28:21.915Z,15.90
2024-05-09T13:31:18.420Z,15.90
2024-05-09T13:34:14.562Z,15.90
2024-05-09T13:37:10.918Z,15.80
2024-05-09T13:40:07.468Z,15.80
2024-05-09T13:43:04.895Z,15.80
2024-05-09T13:46:01.533Z,15.80
2024-05-09T13:48:59.368Z,15.70
2024-05-09T13:51:55.607Z,15.70
2024-05-09T13:54:51.686Z,15.70
2024-05-09T13:57:47.813Z,15.60
2024-05-09T14:00:48.217Z,15.60
2024-05-09T14:03:45.377Z,15.60
2024-05-09T14:06:41.785Z,15.50
2024-05-09T14:09:37.779Z,15.50
2024-05-09T14:12:33.926Z,15.50
2024-05-09T14:15:30.201Z,15.50
2024-05-09T14:18:26.517Z,15.40
2024-05-09T14:21:24.506Z,15.30
2024-05-09T14:24:20.708Z,15.30
2024-05-09T14:27:16.862Z,15.20
2024-05-09T14:30:22.076Z,15.20
2024-05-09T14:33:28.258Z,15.20
2024-05-09T14:36:24.666Z,15.10
2024-05-09T14:39:20.992Z,15.20
2024-05-09T14:42:17.525Z,15.10
2024-05-09T14:45:14.022Z,15.10
2024-05-09T14:48:11.412Z,15.10
2024-05-09T14:51:08.313Z,15.00
2024-05-09T14:54:04.760Z,15.00
2024-05-09T14:57:01.122Z,15.00
2024-05-09T14:59:57.381Z,14.90
2024-05-09T15:02:53.597Z,14.90
2024-05-09T15:05:51.366Z,14.80
2024-05-09T15:08:48.193Z,14.80
2024-05-09T15:11:45.946Z,14.80
2024-05-09T15:14:42.206Z,14.80
2024-05-09T15:17:38.620Z,14.70
2024-05-09T15:20:36.790Z,14.70
2024-05-09T15:23:33.922Z,14.60
2024-05-09T15:26:30.526Z,14.60
2024-05-09T15:29:28.107Z,14.60
2024-05-09T15:32:24.607Z,14.60
2024-05-09T15:35:21.262Z,14.50
2024-05-09T15:38:19.790Z,14.50
2024-05-09T15:41:17.067Z,14.50
2024-05-09T15:44:12.427Z,14.50
2024-05-09T15:47:08.877Z,14.40
2024-05-09T15:50:09.665Z,14.40
2024-05-09T15:53:09.231Z,14.40
2024-05-09T15:56:06.409Z,14.30
2024-05-09T15:59:02.904Z,14.30
2024-05-09T16:01:59.174Z,14.30
2024-05-09T16:04:55.633Z,14.30
2024-05-09T16:07:52.128Z,14.30
2024-05-09T16:10:49.472Z,14.20
2024-05-09T16:13:46.127Z,14.20
2024-05-09T16:16:43.134Z,14.10
2024-05-09T16:19:39.469Z,14.10
2024-05-09T16:22:36.116Z,14.10
2024-05-09T16:25:32.863Z,14.00
2024-05-09T16:28:29.343Z,14.00
2024-05-09T16:31:25.712Z,14.00
2024-05-09T16:34:22.195Z,14.00
2024-05-09T16:37:19.044Z,14.00
2024-05-09T16:40:21.949Z,14.00
2024-05-09T16:43:26.403Z,14.00
2024-05-09T16:46:23.060Z,13.90
2024-05-09T16:49:19.460Z,13.90
2024-05-09T16:52:15.903Z,13.80
2024-05-09T16:55:12.167Z,13.80
2024-05-09T16:58:10.124Z,13.80
2024-05-09T17:01:06.885Z,13.90
2024-05-09T17:04:03.512Z,13.80
2024-05-09T17:07:00.217Z,13.80
2024-05-09T17:09:56.510Z,13.80
2024-05-09T17:12:53.048Z,13.70
2024-05-09T17:15:49.788Z,13.70
2024-05-09T17:18:48.105Z,13.70
2024-05-09T17:21:44.368Z,13.70
2024-05-09T17:24:40.678Z,13.70
2024-05-09T17:27:37.057Z,13.70
2024-05-09T17:30:36.448Z,13.70
2024-05-09T17:33:34.853Z,13.70
2024-05-09T17:36:31.249Z,13.70
2024-05-09T17:39:28.037Z,13.70
2024-05-09T17:42:24.232Z,13.60
2024-05-09T17:45:21.167Z,13.60
2024-05-09T17:51:13.666Z,13.50
2024-05-09T17:54:09.926Z,13.50
2024-05-09T17:57:06.396Z,13.50
2024-05-09T18:00:04.074Z,13.40
2024-05-09T18:03:01.522Z,13.40
2024-05-09T18:05:57.888Z,13.40
2024-05-09T18:08:54.045Z,13.30
2024-05-09T18:11:50.182Z,13.30
2024-05-09T18:14:46.136Z,13.30
2024-05-09T18:17:42.481Z,13.30
2024-05-09T18:20:43.889Z,13.20
2024-05-09T18:23:41.771Z,13.20
2024-05-09T18:26:37.730Z,13.20
2024-05-09T18:29:33.696Z,13.20
2024-05-09T18:32:29.824Z,13.10
2024-05-09T18:35:25.786Z,13.10
2024-05-09T18:38:27.212Z,13.10
2024-05-09T18:41:23.790Z,13.10
2024-05-09T18:44:19.902Z,13.00
2024-05-09T18:47:19.322Z,13.10
2024-05-09T18:50:24.613Z,13.00
2024-05-09T18:53:27.972Z,13.10
2024-05-09T18:56:24.297Z,13.10
2024-05-09T18:59:20.205Z,13.10
2024-05-09T19:02:16.497Z,13.10
2024-05-09T19:05:12.666Z,13.20
2024-05-09T19:08:09.604Z,13.10
2024-05-09T19:11:05.594Z,13.10
2024-05-09T19:14:06.098Z,13.10
2024-05-09T19:17:02.020Z,13.10
2024-05-09T19:19:58.793Z,13.10
2024-05-09T19:22:54.796Z,13.10
2024-05-09T19:25:51.009Z,13.10
2024-05-09T19:28:47.251Z,13.10
2024-05-09T19:31:43.162Z,13.10
2024-05-09T19:34:39.046Z,13.10
2024-05-09T19:37:35.039Z,13.10
2024-05-09T19:40:33.152Z,13.10
2024-05-09T19:43:36.048Z,13.10
2024-05-09T19:46:32.290Z,13.10
2024-05-09T19:49:28.633Z,13.00
2024-05-09T19:52:24.551Z,13.10
2024-05-09T19:55:20.455Z,13.10
2024-05-09T19:58:16.599Z,13.00
2024-05-09T20:01:12.808Z,13.00
2024-05-09T20:04:09.058Z,13.00
2024-05-09T20:07:05.214Z,13.00
2024-05-09T20:10:01.206Z,13.00
2024-05-09T20:12:57.305Z,13.00
2024-05-09T20:15:53.630Z,13.00
2024-05-09T20:18:49.830Z,13.00
2024-05-09T20:21:46.400Z,13.00
2024-05-09T20:24:42.413Z,13.00
2024-05-09T20:27:38.440Z,13.00
2024-05-09T20:30:36.565Z,13.00
2024-05-09T20:33:33.007Z,12.90
2024-05-09T20:36:29.156Z,12.90
2024-05-09T20:39:29.154Z,12.90
2024-05-09T20:42:25.707Z,12.90
2024-05-09T20:45:21.972Z,12.90
2024-05-09T20:48:18.101Z,12.90
2024-05-09T20:51:14.069Z,12.90
2024-05-09T20:54:10.128Z,12.90
2024-05-09T20:57:06.062Z,12.80
2024-05-09T21:00:05.709Z,12.80
2024-05-09T21:03:03.359Z,12.80
2024-05-09T21:05:59.337Z,12.80
2024-05-09T21:08:55.250Z,12.90
2024-05-09T21:11:51.270Z,12.80
2024-05-09T21:14:47.159Z,12.80
2024-05-09T21:17:43.293Z,12.80
2024-05-09T21:20:39.375Z,12.80
2024-05-09T21:23:35.395Z,12.80
2024-05-09T21:26:31.427Z,12.70
2024-05-09T21:29:27.451Z,12.70
2024-05-09T21:32:23.607Z,12.70
2024-05-09T21:35:20.219Z,12.60
2024-05-09T21:38:16.798Z,12.60
2024-05-09T21:41:13.014Z,12.60
2024-05-09T21:44:09.061Z,12.60
2024-05-09T21:47:05.513Z,12.60
2024-05-09T21:50:01.421Z,12.60
2024-05-09T21:52:57.444Z,12.60
2024-05-09T21:55:53.342Z,12.60
2024-05-09T21:58:49.372Z,12.60
2024-05-09T22:01:45.434Z,12.60
2024-05-09T22:04:41.820Z,12.60
2024-05-09T22:07:37.802Z,12.60
2024-05-09T22:10:36.363Z,12.60
2024-05-09T22:13:33.343Z,12.60
2024-05-09T22:16:29.542Z,12.60
2024-05-09T22:19:25.759Z,12.60
2024-05-09T22:22:22.305Z,12.60
2024-05-09T22:25:18.275Z,12.60
2024-05-09T22:28:16.159Z,12.70
2024-05-09T22:31:12.463Z,12.70
2024-05-09T22:34:08.679Z,12.70
2024-05-09T22:37:04.707Z,12.70
2024-05-09T22:40:02.320Z,12.80
2024-05-09T22:42:59.235Z,12.90
2024-05-09T22:45:58.481Z,13.00
2024-05-09T22:48:54.863Z,13.00
2024-05-09T22:51:50.870Z,13.10
2024-05-09T22:54:47.049Z,13.10
2024-05-09T22:57:43.128Z,13.20
2024-05-09T23:00:39.333Z,13.30
2024-05-09T23:03:36.338Z,13.40
2024-05-09T23:06:33.946Z,13.50
2024-05-09T23:09:30.021Z,13.60
2024-05-09T23:12:25.920Z,13.70
2024-05-09T23:15:22.002Z,13.80
2024-05-09T23:18:18.075Z,14.00
2024-05-09T23:21:14.096Z,14.10
2024-05-09T23:24:10.085Z,14.30
2024-05-09T23:27:06.103Z,15.30
2024-05-09T23:30:02.056Z,16.40
2024-05-09T23:32:58.197Z,16.70
2024-05-09T23:35:54.162Z,16.80
2024-05-09T23:38:50.153Z,16.80
2024-05-09T23:41:46.030Z,16.70
2024-05-09T23:44:42.089Z,16.70
2024-05-09T23:47:38.811Z,16.80
2024-05-09T23:50:38.203Z,16.80
2024-05-09T23:53:35.720Z,16.90
2024-05-09T23:56:31.903Z,16.90
2024-05-09T23:59:27.807Z,17.00
